createdAt,value
2022-08-25T00:00:12.415Z,11.85
2022-08-25T00:02:39.191Z,10.73
2022-08-25T00:05:07.383Z,10.85
2022-08-25T00:07:36.469Z,13.07
2022-08-25T00:10:05.567Z,10.55
2022-08-25T00:12:32.929Z,10.75
2022-08-25T00:14:59.862Z,12.05
2022-08-25T00:17:27.598Z,11.75
2022-08-25T00:19:54.323Z,11.13
2022-08-25T00:22:21.057Z,14.52
2022-08-25T00:24:47.776Z,12.60
2022-08-25T00:27:14.859Z,16.10
2022-08-25T00:29:41.542Z,12.95
2022-08-25T00:32:08.391Z,12.82
2022-08-25T00:34:38.002Z,19.13
2022-08-25T00:37:07.341Z,11.68
2022-08-25T00:39:34.639Z,11.20
2022-08-25T00:42:01.707Z,11.55
2022-08-25T00:44:30.772Z,10.60
2022-08-25T00:47:00.977Z,15.77
2022-08-25T00:52:16.068Z,12.10
2022-08-25T00:54:45.933Z,13.65
2022-08-25T00:57:14.945Z,11.85
2022-08-25T00:59:44.354Z,11.73
2022-08-25T01:02:13.767Z,13.27
2022-08-25T01:04:48.745Z,14.27
2022-08-25T01:07:18.937Z,16.10
2022-08-25T01:09:48.034Z,15.07
2022-08-25T01:12:15.098Z,13.75
2022-08-25T01:14:45.965Z,17.50
2022-08-25T01:17:14.348Z,14.20
2022-08-25T01:19:41.171Z,15.88
2022-08-25T01:22:08.566Z,13.52
2022-08-25T01:24:59.007Z,14.10
2022-08-25T01:27:25.785Z,13.73
2022-08-25T01:29:52.644Z,14.18
2022-08-25T01:32:20.010Z,18.20
2022-08-25T01:34:46.906Z,13.70
2022-08-25T01:37:16.123Z,14.18
2022-08-25T01:39:43.795Z,18.70
2022-08-25T01:42:48.672Z,16.23
2022-08-25T01:45:15.510Z,12.90
2022-08-25T01:47:42.308Z,19.23
2022-08-25T01:50:09.384Z,12.63
2022-08-25T01:52:58.508Z,13.02
2022-08-25T01:55:25.888Z,14.55
2022-08-25T01:57:52.784Z,12.15
2022-08-25T02:00:21.303Z,13.60
2022-08-25T02:02:52.230Z,13.63
2022-08-25T02:05:23.495Z,12.27
2022-08-25T02:07:51.577Z,13.05
2022-08-25T02:10:18.833Z,12.73
2022-08-25T02:12:45.674Z,11.90
2022-08-25T02:15:12.567Z,12.43
2022-08-25T02:17:39.436Z,16.33
2022-08-25T02:20:08.586Z,12.43
2022-08-25T02:22:35.287Z,16.45
2022-08-25T02:25:02.015Z,11.10
2022-08-25T02:27:28.763Z,11.30
2022-08-25T02:29:55.658Z,10.73
2022-08-25T02:32:22.371Z,11.45
2022-08-25T02:34:49.313Z,10.73
2022-08-25T02:37:16.117Z,15.23
2022-08-25T02:39:42.854Z,15.77
2022-08-25T02:42:09.550Z,11.55
2022-08-25T02:44:36.294Z,11.48
2022-08-25T02:47:03.236Z,11.38
2022-08-25T02:49:30.515Z,10.95
2022-08-25T02:51:58.741Z,13.02
2022-08-25T02:54:25.955Z,10.05
2022-08-25T02:56:52.660Z,9.57
2022-08-25T02:59:19.576Z,9.43
2022-08-25T03:01:46.354Z,9.80
2022-08-25T03:04:13.183Z,10.60
2022-08-25T03:06:40.896Z,9.75
2022-08-25T03:09:08.054Z,10.25
2022-08-25T03:11:35.023Z,8.65
2022-08-25T03:14:01.851Z,8.13
2022-08-25T03:16:28.634Z,8.40
2022-08-25T03:18:55.479Z,7.43
2022-08-25T03:21:22.841Z,7.82
2022-08-25T03:23:49.557Z,8.30
2022-08-25T03:26:34.986Z,9.98
2022-08-25T03:29:05.166Z,12.15
2022-08-25T03:34:00.389Z,9.02
2022-08-25T03:36:27.817Z,16.02
2022-08-25T03:38:54.597Z,7.15
2022-08-25T03:41:27.783Z,8.48
2022-08-25T03:43:56.710Z,7.40
2022-08-25T03:46:26.189Z,8.85
2022-08-25T03:48:53.381Z,6.38
2022-08-25T03:51:29.357Z,9.30
2022-08-25T03:53:56.688Z,6.53
2022-08-25T03:56:23.593Z,8.68
2022-08-25T03:58:51.337Z,6.30
2022-08-25T04:01:18.288Z,12.35
2022-08-25T04:03:46.047Z,10.93
2022-08-25T04:06:13.570Z,9.88
2022-08-25T04:08:40.351Z,12.82
2022-08-25T04:11:13.120Z,13.20
2022-08-25T04:13:41.922Z,9.40
2022-08-25T04:16:14.302Z,5.78
2022-08-25T04:18:41.857Z,10.07
2022-08-25T04:21:10.215Z,8.70
2022-08-25T04:23:40.708Z,7.00
2022-08-25T04:26:11.581Z,8.82
2022-08-25T04:28:38.532Z,11.02
2022-08-25T04:31:10.331Z,6.53
2022-08-25T04:33:38.531Z,5.35
2022-08-25T04:36:11.968Z,9.38
2022-08-25T04:38:40.756Z,9.60
2022-08-25T04:41:10.074Z,11.27
2022-08-25T04:43:38.043Z,9.07
2022-08-25T04:46:11.376Z,9.13
2022-08-25T04:48:42.208Z,8.73
2022-08-25T04:51:12.496Z,8.25
2022-08-25T04:53:40.107Z,8.52
2022-08-25T04:56:12.806Z,5.20
2022-08-25T04:58:40.513Z,5.32
2022-08-25T05:01:15.562Z,6.03
2022-08-25T05:03:43.036Z,6.43
2022-08-25T05:06:13.965Z,7.30
2022-08-25T05:08:42.530Z,7.93
2022-08-25T05:11:14.916Z,7.10
2022-08-25T05:13:43.102Z,9.30
2022-08-25T05:16:11.479Z,5.63
2022-08-25T05:18:38.622Z,10.40
2022-08-25T05:21:13.617Z,8.00
2022-08-25T05:23:41.196Z,6.13
2022-08-25T05:26:10.979Z,4.68
2022-08-25T05:28:41.779Z,4.60
2022-08-25T05:31:11.267Z,5.22
2022-08-25T05:33:39.368Z,6.40
2022-08-25T05:36:07.946Z,5.32
2022-08-25T05:38:34.688Z,7.88
2022-08-25T05:41:07.337Z,12.27
2022-08-25T05:43:34.968Z,5.63
2022-08-25T05:46:01.731Z,11.68
2022-08-25T05:48:31.180Z,7.32
2022-08-25T05:51:03.435Z,8.45
2022-08-25T05:53:31.132Z,5.55
2022-08-25T05:56:01.866Z,10.93
2022-08-25T05:58:29.866Z,4.28
2022-08-25T06:00:58.257Z,8.60
2022-08-25T06:03:25.132Z,7.15
2022-08-25T06:05:51.966Z,8.68
2022-08-25T06:08:19.494Z,8.05
2022-08-25T06:10:51.588Z,5.03
2022-08-25T06:13:18.521Z,7.53
2022-08-25T06:15:58.323Z,6.88
2022-08-25T06:18:25.373Z,7.43
2022-08-25T06:20:52.274Z,7.40
2022-08-25T06:23:19.434Z,7.93
2022-08-25T06:25:53.497Z,6.45
2022-08-25T06:28:21.216Z,5.97
2022-08-25T06:30:48.409Z,7.50
2022-08-25T06:33:15.622Z,10.52
2022-08-25T06:35:43.965Z,4.63
2022-08-25T06:38:11.608Z,6.40
2022-08-25T06:40:38.757Z,8.63
2022-08-25T06:43:08.857Z,14.70
2022-08-25T06:45:35.930Z,10.13
2022-08-25T06:48:03.101Z,5.13
2022-08-25T06:50:33.052Z,9.95
2022-08-25T06:53:00.004Z,7.50
2022-08-25T06:55:26.760Z,9.40
2022-08-25T06:57:55.131Z,7.40
2022-08-25T07:00:30.333Z,6.85
2022-08-25T07:03:01.158Z,12.93
2022-08-25T07:05:40.913Z,8.13
2022-08-25T07:08:12.010Z,8.35
2022-08-25T07:10:39.073Z,8.40
2022-08-25T07:13:05.934Z,16.77
2022-08-25T07:15:38.749Z,7.20
2022-08-25T07:18:13.124Z,6.72
2022-08-25T07:20:41.071Z,7.18
2022-08-25T07:23:08.974Z,6.22
2022-08-25T07:25:36.217Z,7.55
2022-08-25T07:28:04.172Z,8.95
2022-08-25T07:30:32.542Z,8.38
2022-08-25T07:33:00.725Z,8.80
2022-08-25T07:35:37.483Z,6.15
2022-08-25T07:38:10.255Z,11.57
2022-08-25T07:40:42.938Z,5.75
2022-08-25T07:43:10.353Z,4.45
2022-08-25T07:45:49.038Z,15.55
2022-08-25T07:48:19.787Z,4.97
2022-08-25T07:50:49.364Z,4.07
2022-08-25T07:53:17.439Z,9.20
2022-08-25T07:55:45.107Z,9.15
2022-08-25T07:58:14.173Z,5.25
2022-08-25T08:00:42.439Z,10.30
2022-08-25T08:03:19.864Z,6.47
2022-08-25T08:05:57.193Z,8.18
2022-08-25T08:08:23.910Z,9.70
2022-08-25T08:11:06.080Z,9.88
2022-08-25T08:13:40.764Z,6.25
2022-08-25T08:16:13.227Z,7.05
2022-08-25T08:18:40.471Z,5.80
2022-08-25T08:21:13.116Z,4.80
2022-08-25T08:23:47.333Z,7.35
2022-08-25T08:26:14.480Z,5.57
2022-08-25T08:28:41.217Z,7.38
2022-08-25T08:31:10.553Z,5.03
2022-08-25T08:33:40.693Z,4.15
2022-08-25T08:36:11.764Z,7.32
2022-08-25T08:38:41.706Z,8.48
2022-08-25T08:42:11.255Z,7.90
2022-08-25T08:44:41.513Z,5.05
2022-08-25T08:47:17.204Z,9.88
2022-08-25T08:50:27.741Z,7.55
2022-08-25T08:53:40.063Z,7.97
2022-08-25T08:56:16.541Z,7.40
2022-08-25T08:59:06.197Z,5.80
2022-08-25T09:01:43.602Z,7.20
2022-08-25T09:04:16.480Z,6.60
2022-08-25T09:06:45.718Z,6.18
2022-08-25T09:09:16.960Z,7.63
2022-08-25T09:11:59.184Z,4.63
2022-08-25T09:14:39.782Z,9.90
2022-08-25T09:17:21.861Z,4.18
2022-08-25T09:20:27.558Z,9.23
2022-08-25T09:23:07.066Z,7.22
2022-08-25T09:25:53.559Z,8.48
2022-08-25T09:28:51.199Z,6.63
2022-08-25T09:31:31.533Z,5.35
2022-08-25T09:34:02.184Z,8.35
2022-08-25T09:36:30.125Z,5.93
2022-08-25T09:38:58.036Z,5.80
2022-08-25T09:41:52.737Z,2.92
2022-08-25T09:44:33.024Z,8.43
2022-08-25T09:47:25.008Z,8.80
2022-08-25T09:50:01.761Z,9.68
2022-08-25T09:52:41.130Z,7.38
2022-08-25T09:55:08.166Z,6.38
2022-08-25T09:57:45.741Z,8.43
2022-08-25T10:00:21.800Z,6.82
2022-08-25T10:03:22.554Z,4.20
2022-08-25T10:06:12.993Z,5.75
2022-08-25T10:08:56.104Z,8.55
2022-08-25T10:11:45.298Z,2.97
2022-08-25T10:14:36.349Z,4.57
2022-08-25T10:17:13.429Z,7.03
2022-08-25T10:19:40.322Z,8.85
2022-08-25T10:22:24.278Z,7.57
2022-08-25T10:24:51.116Z,7.60
2022-08-25T10:27:28.591Z,4.13
2022-08-25T10:30:03.543Z,3.13
2022-08-25T10:32:58.288Z,3.85
2022-08-25T10:35:34.967Z,3.40
2022-08-25T10:38:36.171Z,7.03
2022-08-25T10:41:19.820Z,9.70
2022-08-25T10:44:42.001Z,10.75
2022-08-25T10:47:22.384Z,6.85
2022-08-25T10:49:54.694Z,5.55
2022-08-25T10:52:31.365Z,5.95
2022-08-25T10:55:09.096Z,9.18
2022-08-25T10:57:58.050Z,4.20
2022-08-25T11:00:31.775Z,5.07
2022-08-25T11:03:13.292Z,5.68
2022-08-25T11:08:19.968Z,4.25
2022-08-25T11:11:01.163Z,4.40
2022-08-25T11:13:33.806Z,8.68
2022-08-25T11:16:21.741Z,9.38
2022-08-25T11:18:55.955Z,4.05
2022-08-25T11:21:31.909Z,4.45
2022-08-25T11:24:43.157Z,11.18
2022-08-25T11:27:37.467Z,9.55
2022-08-25T11:30:11.775Z,5.90
2022-08-25T11:32:39.884Z,3.25
2022-08-25T11:35:12.836Z,6.28
2022-08-25T11:38:04.881Z,4.80
2022-08-25T11:40:53.325Z,4.22
2022-08-25T11:43:40.623Z,4.47
2022-08-25T11:46:26.155Z,4.32
2022-08-25T11:49:15.230Z,5.80
2022-08-25T11:51:47.559Z,5.95
2022-08-25T11:54:35.725Z,6.13
2022-08-25T11:57:07.136Z,8.30
2022-08-25T11:59:53.120Z,5.15
2022-08-25T12:02:43.765Z,10.95
2022-08-25T12:05:20.113Z,3.33
2022-08-25T12:08:16.790Z,3.05
2022-08-25T12:11:11.382Z,3.15
2022-08-25T12:13:47.575Z,3.97
2022-08-25T12:16:43.462Z,3.28
2022-08-25T12:19:29.344Z,5.93
2022-08-25T12:22:28.004Z,4.55
2022-08-25T12:25:13.965Z,3.78
2022-08-25T12:28:15.701Z,5.22
2022-08-25T12:30:52.697Z,14.40
2022-08-25T12:33:45.031Z,7.72
2022-08-25T12:36:27.704Z,3.70
2022-08-25T12:38:54.551Z,6.43
2022-08-25T12:41:31.108Z,8.55
2022-08-25T12:44:41.300Z,6.03
2022-08-25T12:47:13.752Z,4.30
2022-08-25T12:49:40.791Z,3.22
2022-08-25T12:52:15.876Z,7.90
2022-08-25T12:54:59.499Z,2.95
2022-08-25T12:57:40.752Z,10.35
2022-08-25T13:03:21.691Z,2.25
2022-08-25T13:06:04.528Z,3.75
2022-08-25T13:09:01.601Z,6.68
2022-08-25T13:11:46.449Z,4.38
2022-08-25T13:14:41.544Z,2.50
2022-08-25T13:17:10.846Z,4.97
2022-08-25T13:19:38.657Z,1.80
2022-08-25T13:22:17.678Z,3.33
2022-08-25T13:24:50.518Z,4.70
2022-08-25T13:27:29.910Z,3.45
2022-08-25T13:32:35.461Z,2.23
2022-08-25T13:35:17.680Z,9.18
2022-08-25T13:37:46.481Z,3.75
2022-08-25T13:40:17.834Z,3.72
2022-08-25T13:42:54.445Z,3.28
2022-08-25T13:45:26.322Z,3.15
2022-08-25T13:48:07.618Z,2.25
2022-08-25T13:50:42.634Z,2.80
2022-08-25T13:53:15.581Z,2.58
2022-08-25T13:55:57.937Z,5.93
2022-08-25T13:58:44.975Z,4.80
2022-08-25T14:01:47.727Z,3.55
2022-08-25T14:04:51.190Z,3.90
2022-08-25T14:07:22.255Z,4.85
2022-08-25T14:09:52.411Z,5.80
2022-08-25T14:12:39.872Z,3.42
2022-08-25T14:15:29.443Z,4.20
2022-08-25T14:18:19.402Z,6.05
2022-08-25T14:20:50.527Z,8.95
2022-08-25T14:23:22.151Z,2.17
2022-08-25T14:25:53.403Z,3.80
2022-08-25T14:28:23.545Z,6.90
2022-08-25T14:30:57.143Z,4.85
2022-08-25T14:33:29.269Z,5.60
2022-08-25T14:35:59.223Z,8.05
2022-08-25T14:38:26.306Z,5.72
2022-08-25T14:40:53.831Z,9.95
2022-08-25T14:43:23.958Z,6.65
2022-08-25T14:45:58.273Z,3.13
2022-08-25T14:48:42.429Z,4.30
2022-08-25T14:51:12.526Z,3.25
2022-08-25T14:53:40.155Z,2.85
2022-08-25T14:56:09.235Z,4.07
2022-08-25T14:58:47.317Z,5.05
2022-08-25T15:01:18.575Z,3.00
2022-08-25T15:03:51.731Z,2.45
2022-08-25T15:06:18.790Z,3.10
2022-08-25T15:09:04.646Z,3.35
2022-08-25T15:11:31.978Z,7.72
2022-08-25T15:14:02.039Z,6.07
2022-08-25T15:16:56.223Z,3.58
2022-08-25T15:19:25.742Z,7.07
2022-08-25T15:21:53.289Z,7.45
2022-08-25T15:24:21.430Z,6.20
2022-08-25T15:29:29.679Z,7.60
2022-08-25T15:31:57.580Z,5.15
2022-08-25T15:34:24.371Z,6.82
2022-08-25T15:36:51.446Z,7.72
2022-08-25T15:39:19.193Z,6.72
2022-08-25T15:41:52.446Z,5.88
2022-08-25T15:44:20.467Z,5.38
2022-08-25T15:46:50.001Z,6.55
2022-08-25T15:51:50.881Z,7.72
2022-08-25T15:54:17.658Z,6.53
2022-08-25T15:56:44.511Z,5.35
2022-08-25T15:59:13.537Z,4.50
2022-08-25T16:01:41.697Z,3.70
2022-08-25T16:04:08.498Z,5.53
2022-08-25T16:06:35.316Z,6.57
2022-08-25T16:09:03.042Z,4.03
2022-08-25T16:11:34.818Z,3.08
2022-08-25T16:14:02.396Z,9.40
2022-08-25T16:16:31.087Z,5.82
2022-08-25T16:21:31.916Z,4.35
2022-08-25T16:24:05.439Z,8.80
2022-08-25T16:26:36.547Z,7.75
2022-08-25T16:29:07.056Z,4.00
2022-08-25T16:31:33.876Z,7.10
2022-08-25T16:34:01.536Z,9.07
2022-08-25T16:36:29.166Z,6.75
2022-08-25T16:38:57.676Z,6.97
2022-08-25T16:41:27.190Z,9.57
2022-08-25T16:46:23.767Z,9.50
2022-08-25T16:48:51.053Z,4.50
2022-08-25T16:51:22.636Z,11.10
2022-08-25T16:54:15.999Z,6.25
2022-08-25T16:56:54.876Z,13.40
2022-08-25T16:59:23.583Z,6.63
2022-08-25T17:01:51.971Z,16.27
2022-08-25T17:04:19.464Z,5.22
2022-08-25T17:06:49.368Z,6.30
2022-08-25T17:09:23.058Z,8.30
2022-08-25T17:11:52.691Z,8.23
2022-08-25T17:14:21.824Z,9.90
2022-08-25T17:16:50.664Z,6.82
2022-08-25T17:19:19.140Z,10.00
2022-08-25T17:21:46.742Z,20.38
2022-08-25T17:24:15.240Z,7.45
2022-08-25T17:26:43.152Z,7.07
2022-08-25T17:29:10.636Z,6.80
2022-08-25T17:31:39.977Z,5.95
2022-08-25T17:34:12.902Z,7.68
2022-08-25T17:36:43.818Z,15.10
2022-08-25T17:39:12.706Z,10.45
2022-08-25T17:41:43.089Z,12.57
2022-08-25T17:44:09.815Z,10.85
2022-08-25T17:46:36.811Z,7.95
2022-08-25T17:49:04.393Z,10.70
2022-08-25T17:51:32.039Z,16.60
2022-08-25T17:53:59.172Z,11.75
2022-08-25T17:56:27.397Z,12.48
2022-08-25T17:58:56.029Z,8.40
2022-08-25T18:01:29.099Z,12.75
2022-08-25T18:03:57.413Z,10.40
2022-08-25T18:06:26.203Z,10.85
2022-08-25T18:08:58.744Z,11.68
2022-08-25T18:11:27.396Z,12.60
2022-08-25T18:13:55.379Z,10.15
2022-08-25T18:16:22.939Z,6.65
2022-08-25T18:18:50.392Z,10.77
2022-08-25T18:21:20.316Z,8.43
2022-08-25T18:23:47.809Z,7.15
2022-08-25T18:26:15.746Z,7.13
2022-08-25T18:28:43.687Z,14.73
2022-08-25T18:31:13.350Z,8.25
2022-08-25T18:33:44.432Z,9.27
2022-08-25T18:36:12.171Z,7.70
2022-08-25T18:38:58.482Z,9.80
2022-08-25T18:41:26.814Z,13.43
2022-08-25T18:43:54.994Z,13.52
2022-08-25T18:46:22.610Z,14.52
2022-08-25T18:48:52.799Z,7.55
2022-08-25T18:51:23.080Z,9.63
2022-08-25T18:53:54.458Z,12.50
2022-08-25T18:56:26.417Z,8.98
2022-08-25T18:58:53.242Z,13.13
2022-08-25T19:01:20.654Z,13.65
2022-08-25T19:03:48.741Z,10.27
2022-08-25T19:06:16.627Z,15.05
2022-08-25T19:08:44.578Z,15.40
2022-08-25T19:11:12.054Z,19.70
2022-08-25T19:13:39.433Z,17.77
2022-08-25T19:16:31.187Z,17.17
2022-08-25T19:18:58.369Z,16.10
2022-08-25T19:21:25.436Z,15.30
2022-08-25T19:23:53.528Z,17.23
2022-08-25T19:26:20.779Z,19.98
2022-08-25T19:28:49.550Z,14.32
2022-08-25T19:31:26.442Z,17.73
2022-08-25T19:33:55.974Z,21.50
2022-08-25T19:36:28.055Z,20.43
2022-08-25T19:38:58.231Z,21.60
2022-08-25T19:41:27.520Z,25.83
2022-08-25T19:43:56.322Z,25.05
2022-08-25T19:46:32.081Z,27.02
2022-08-25T19:49:08.408Z,27.88
2022-08-25T19:51:44.339Z,30.42
2022-08-25T19:54:13.590Z,28.17
2022-08-25T19:56:43.618Z,25.95
2022-08-25T19:59:11.184Z,25.88
2022-08-25T20:01:38.000Z,30.40
2022-08-25T20:04:07.198Z,24.77
2022-08-25T20:06:34.001Z,28.42
2022-08-25T20:09:01.335Z,25.75
2022-08-25T20:11:29.330Z,25.05
2022-08-25T20:13:59.257Z,31.73
2022-08-25T20:16:29.946Z,24.05
2022-08-25T20:18:56.645Z,29.00
2022-08-25T20:21:25.232Z,26.40
2022-08-25T20:24:10.726Z,24.05
2022-08-25T20:26:37.671Z,21.33
2022-08-25T20:31:34.146Z,21.63
2022-08-25T20:34:03.033Z,20.98
2022-08-25T20:36:29.981Z,21.40
2022-08-25T20:38:59.045Z,20.98
2022-08-25T20:41:26.026Z,18.48
2022-08-25T20:43:52.993Z,19.85
2022-08-25T20:46:19.772Z,24.20
2022-08-25T20:48:47.123Z,23.25
2022-08-25T20:51:18.427Z,16.58
2022-08-25T20:53:45.683Z,14.90
2022-08-25T20:56:14.661Z,21.77
2022-08-25T20:58:42.826Z,16.88
2022-08-25T21:01:20.433Z,17.42
2022-08-25T21:03:50.501Z,18.08
2022-08-25T21:06:17.448Z,16.80
2022-08-25T21:08:46.819Z,14.38
2022-08-25T21:11:15.985Z,21.63
2022-08-25T21:13:42.871Z,25.33
2022-08-25T21:16:10.265Z,21.80
2022-08-25T21:18:38.335Z,20.02
2022-08-25T21:21:14.550Z,19.33
2022-08-25T21:23:43.662Z,18.08
2022-08-25T21:26:22.876Z,14.98
2022-08-25T21:28:49.946Z,14.77
2022-08-25T21:31:18.258Z,17.92
2022-08-25T21:33:47.991Z,12.25
2022-08-25T21:36:19.533Z,15.10
2022-08-25T21:38:47.945Z,11.10
2022-08-25T21:41:22.808Z,13.50
2022-08-25T21:43:50.476Z,13.82
2022-08-25T21:46:22.839Z,17.75
2022-08-25T21:48:50.462Z,12.20
2022-08-25T21:51:20.415Z,9.90
2022-08-25T21:53:49.566Z,11.70
2022-08-25T21:56:19.305Z,10.73
2022-08-25T21:58:49.205Z,10.15
2022-08-25T22:01:19.606Z,14.73
2022-08-25T22:03:47.085Z,8.63
2022-08-25T22:06:15.249Z,9.38
2022-08-25T22:08:43.584Z,12.23
2022-08-25T22:11:14.459Z,10.07
2022-08-25T22:13:44.105Z,11.77
2022-08-25T22:16:12.532Z,8.48
2022-08-25T22:18:39.889Z,11.70
2022-08-25T22:21:09.744Z,8.43
2022-08-25T22:23:44.149Z,6.25
2022-08-25T22:26:13.990Z,9.57
2022-08-25T22:28:42.714Z,10.77
2022-08-25T22:31:14.690Z,11.05
2022-08-25T22:33:50.245Z,8.90
2022-08-25T22:36:27.172Z,9.15
2022-08-25T22:38:56.291Z,7.72
2022-08-25T22:41:26.066Z,9.43
2022-08-25T22:43:56.708Z,8.45
2022-08-25T22:46:26.398Z,5.45
2022-08-25T22:48:57.403Z,11.02
2022-08-25T22:51:31.579Z,13.82
2022-08-25T22:53:59.844Z,7.30
2022-08-25T22:56:33.938Z,9.05
2022-08-25T22:59:05.335Z,7.30
2022-08-25T23:01:32.992Z,7.93
2022-08-25T23:04:01.968Z,8.50
2022-08-25T23:06:29.049Z,6.45
2022-08-25T23:08:56.286Z,9.05
2022-08-25T23:11:24.635Z,7.13
2022-08-25T23:13:55.645Z,8.50
2022-08-25T23:16:23.422Z,7.78
2022-08-25T23:18:51.509Z,10.95
2022-08-25T23:21:41.060Z,5.32
2022-08-25T23:24:13.262Z,7.07
2022-08-25T23:26:42.002Z,4.97
2022-08-25T23:29:18.370Z,9.20
2022-08-25T23:31:46.891Z,8.43
2022-08-25T23:34:15.518Z,4.32
2022-08-25T23:36:43.554Z,6.68
2022-08-25T23:39:11.446Z,5.75
2022-08-25T23:41:38.638Z,7.72
2022-08-25T23:44:06.238Z,8.30
2022-08-25T23:46:36.083Z,3.72
2022-08-25T23:49:04.718Z,8.60
2022-08-25T23:51:37.222Z,9.13
2022-08-25T23:54:09.531Z,5.88
2022-08-25T23:56:44.428Z,5.53
2022-08-25T23:59:13.149Z,10.10
